Ocean Falls, Canada
Current Conditions -  °F | °C
As of 6:00 AM on Saturday 20 Dec 2014 (Local Time) from CBBC Reporting Station
Light Rain Light Rain  
Wind Chill: 41°   Ceiling: 5000
Heat Index: 46°   Visibility: 9mi
Dew Point: 41°   Wind: 12mph
Humidity: 81%   Direction: 140°SE
Pressure: 29.19"   Gusts: 18mph
Location:  52.35°N, 127.7°W
Report Text: CBBC 201400Z AUTO 14010G16KT 9SM -RA OVC050 08/05 A2919 RMK SLP886 DENSITY ALT 200FT
Loading
Personal Weather Stations






























Interactive Weather Map New forecast layout! Learn more

10-Day Weather Forecast

Advertisements
Track Severe Weather on mobile